<?xml version="1.0" encoding="UTF-8" standalone="no" ?>
<gpx xmlns="http://www.topografix.com/GPX/1/1" xmlns:xsi="http://www.w3.org/2001/XMLSchema-instance" xsi:schemaLocation="http://www.topografix.com/GPX/1/1 http://www.topografix.com/GPX/1/1/gpx.xsd" version="1.1" creator="VisuGPX - https://www.visugpx.com">
  <metadata>
    <name>Chandeleur 2024 15 km</name>
  </metadata>
  <trk>
    <name><![CDATA[randonnée de la chandeleur-15919047]]></name>
    <trkseg>
      <trkpt lat="47.80333" lon="1.0347">
        <ele>82</ele>
        <time>2024-01-16T15:26:12Z</time>
      </trkpt>
      <trkpt lat="47.80326" lon="1.03356">
        <ele>84</ele>
        <time>2024-01-16T15:27:55Z</time>
      </trkpt>
      <trkpt lat="47.80321" lon="1.03293">
        <ele>85</ele>
        <time>2024-01-16T15:28:51Z</time>
      </trkpt>
      <trkpt lat="47.8031" lon="1.03254">
        <ele>86</ele>
        <time>2024-01-16T15:29:29Z</time>
      </trkpt>
      <trkpt lat="47.80301" lon="1.03232">
        <ele>86</ele>
        <time>2024-01-16T15:29:52Z</time>
      </trkpt>
      <trkpt lat="47.80294" lon="1.0322">
        <ele>86</ele>
        <time>2024-01-16T15:30:07Z</time>
      </trkpt>
      <trkpt lat="47.80203" lon="1.03069">
        <ele>83</ele>
        <time>2024-01-16T15:33:09Z</time>
      </trkpt>
      <trkpt lat="47.80145" lon="1.02967">
        <ele>83</ele>
        <time>2024-01-16T15:35:08Z</time>
      </trkpt>
      <trkpt lat="47.80101" lon="1.02891">
        <ele>85</ele>
        <time>2024-01-16T15:36:38Z</time>
      </trkpt>
      <trkpt lat="47.80084" lon="1.02867">
        <ele>85</ele>
        <time>2024-01-16T15:37:10Z</time>
      </trkpt>
      <trkpt lat="47.80074" lon="1.02858">
        <ele>85</ele>
        <time>2024-01-16T15:37:25Z</time>
      </trkpt>
      <trkpt lat="47.80064" lon="1.02854">
        <ele>85</ele>
        <time>2024-01-16T15:37:39Z</time>
      </trkpt>
      <trkpt lat="47.80063" lon="1.02853">
        <ele>85</ele>
        <time>2024-01-16T15:37:41Z</time>
      </trkpt>
      <trkpt lat="47.80057" lon="1.02831">
        <ele>86</ele>
        <time>2024-01-16T15:38:02Z</time>
      </trkpt>
      <trkpt lat="47.80057" lon="1.02831">
        <ele>86</ele>
        <time>2024-01-16T15:38:02Z</time>
      </trkpt>
      <trkpt lat="47.80057" lon="1.02831">
        <ele>86</ele>
        <time>2024-01-16T15:38:02Z</time>
      </trkpt>
      <trkpt lat="47.79996" lon="1.02739">
        <ele>84</ele>
        <time>2024-01-16T15:39:58Z</time>
      </trkpt>
      <trkpt lat="47.79988" lon="1.02732">
        <ele>85</ele>
        <time>2024-01-16T15:40:10Z</time>
      </trkpt>
      <trkpt lat="47.79985" lon="1.02732">
        <ele>84</ele>
        <time>2024-01-16T15:40:14Z</time>
      </trkpt>
      <trkpt lat="47.79988" lon="1.02732">
        <ele>85</ele>
        <time>2024-01-16T15:40:18Z</time>
      </trkpt>
      <trkpt lat="47.79982" lon="1.02678">
        <ele>90</ele>
        <time>2024-01-16T15:41:07Z</time>
      </trkpt>
      <trkpt lat="47.79974" lon="1.02634">
        <ele>95</ele>
        <time>2024-01-16T15:41:48Z</time>
      </trkpt>
      <trkpt lat="47.79974" lon="1.02622">
        <ele>96</ele>
        <time>2024-01-16T15:41:59Z</time>
      </trkpt>
      <trkpt lat="47.79973" lon="1.0262">
        <ele>96</ele>
        <time>2024-01-16T15:42:01Z</time>
      </trkpt>
      <trkpt lat="47.79974" lon="1.02622">
        <ele>96</ele>
        <time>2024-01-16T15:42:03Z</time>
      </trkpt>
      <trkpt lat="47.79965" lon="1.02562">
        <ele>101</ele>
        <time>2024-01-16T15:42:58Z</time>
      </trkpt>
      <trkpt lat="47.79958" lon="1.02522">
        <ele>104</ele>
        <time>2024-01-16T15:43:35Z</time>
      </trkpt>
      <trkpt lat="47.79957" lon="1.02505">
        <ele>105</ele>
        <time>2024-01-16T15:43:51Z</time>
      </trkpt>
      <trkpt lat="47.79955" lon="1.02483">
        <ele>106</ele>
        <time>2024-01-16T15:44:11Z</time>
      </trkpt>
      <trkpt lat="47.79958" lon="1.02458">
        <ele>108</ele>
        <time>2024-01-16T15:44:33Z</time>
      </trkpt>
      <trkpt lat="47.79973" lon="1.02422">
        <ele>113</ele>
        <time>2024-01-16T15:45:11Z</time>
      </trkpt>
      <trkpt lat="47.79973" lon="1.02421">
        <ele>113</ele>
        <time>2024-01-16T15:45:12Z</time>
      </trkpt>
      <trkpt lat="47.79963" lon="1.02408">
        <ele>112</ele>
        <time>2024-01-16T15:45:30Z</time>
      </trkpt>
      <trkpt lat="47.79938" lon="1.02342">
        <ele>114</ele>
        <time>2024-01-16T15:46:38Z</time>
      </trkpt>
      <trkpt lat="47.79937" lon="1.02342">
        <ele>114</ele>
        <time>2024-01-16T15:46:39Z</time>
      </trkpt>
      <trkpt lat="47.79938" lon="1.02342">
        <ele>114</ele>
        <time>2024-01-16T15:46:41Z</time>
      </trkpt>
      <trkpt lat="47.79969" lon="1.02284">
        <ele>120</ele>
        <time>2024-01-16T15:47:47Z</time>
      </trkpt>
      <trkpt lat="47.79969" lon="1.02283">
        <ele>120</ele>
        <time>2024-01-16T15:47:48Z</time>
      </trkpt>
      <trkpt lat="47.79961" lon="1.02275">
        <ele>121</ele>
        <time>2024-01-16T15:48:01Z</time>
      </trkpt>
      <trkpt lat="47.79948" lon="1.02243">
        <ele>122</ele>
        <time>2024-01-16T15:48:34Z</time>
      </trkpt>
      <trkpt lat="47.79947" lon="1.0223">
        <ele>122</ele>
        <time>2024-01-16T15:48:46Z</time>
      </trkpt>
      <trkpt lat="47.7995" lon="1.02223">
        <ele>123</ele>
        <time>2024-01-16T15:48:53Z</time>
      </trkpt>
      <trkpt lat="47.79949" lon="1.02223">
        <ele>123</ele>
        <time>2024-01-16T15:48:55Z</time>
      </trkpt>
      <trkpt lat="47.79945" lon="1.02211">
        <ele>123</ele>
        <time>2024-01-16T15:49:07Z</time>
      </trkpt>
      <trkpt lat="47.79824" lon="1.01981">
        <ele>118</ele>
        <time>2024-01-16T15:53:29Z</time>
      </trkpt>
      <trkpt lat="47.79854" lon="1.01957">
        <ele>120</ele>
        <time>2024-01-16T15:54:14Z</time>
      </trkpt>
      <trkpt lat="47.79769" lon="1.01644">
        <ele>108</ele>
        <time>2024-01-16T15:59:17Z</time>
      </trkpt>
      <trkpt lat="47.7962" lon="1.01633">
        <ele>99</ele>
        <time>2024-01-16T16:02:36Z</time>
      </trkpt>
      <trkpt lat="47.79641" lon="1.01541">
        <ele>100</ele>
        <time>2024-01-16T16:04:03Z</time>
      </trkpt>
      <trkpt lat="47.79671" lon="1.01464">
        <ele>99</ele>
        <time>2024-01-16T16:05:23Z</time>
      </trkpt>
      <trkpt lat="47.79661" lon="1.01439">
        <ele>98</ele>
        <time>2024-01-16T16:05:49Z</time>
      </trkpt>
      <trkpt lat="47.79648" lon="1.01434">
        <ele>98</ele>
        <time>2024-01-16T16:06:07Z</time>
      </trkpt>
      <trkpt lat="47.79631" lon="1.01447">
        <ele>98</ele>
        <time>2024-01-16T16:06:32Z</time>
      </trkpt>
      <trkpt lat="47.79578" lon="1.01518">
        <ele>98</ele>
        <time>2024-01-16T16:08:07Z</time>
      </trkpt>
      <trkpt lat="47.79548" lon="1.01553">
        <ele>97</ele>
        <time>2024-01-16T16:08:58Z</time>
      </trkpt>
      <trkpt lat="47.79417" lon="1.01634">
        <ele>91</ele>
        <time>2024-01-16T16:12:08Z</time>
      </trkpt>
      <trkpt lat="47.79388" lon="1.01591">
        <ele>90</ele>
        <time>2024-01-16T16:13:02Z</time>
      </trkpt>
      <trkpt lat="47.79249" lon="1.0135">
        <ele>90</ele>
        <time>2024-01-16T16:17:47Z</time>
      </trkpt>
      <trkpt lat="47.79217" lon="1.01296">
        <ele>90</ele>
        <time>2024-01-16T16:18:52Z</time>
      </trkpt>
      <trkpt lat="47.79182" lon="1.01334">
        <ele>89</ele>
        <time>2024-01-16T16:19:49Z</time>
      </trkpt>
      <trkpt lat="47.79158" lon="1.01363">
        <ele>87</ele>
        <time>2024-01-16T16:20:31Z</time>
      </trkpt>
      <trkpt lat="47.79144" lon="1.01365">
        <ele>86</ele>
        <time>2024-01-16T16:20:49Z</time>
      </trkpt>
      <trkpt lat="47.79102" lon="1.01332">
        <ele>84</ele>
        <time>2024-01-16T16:21:53Z</time>
      </trkpt>
      <trkpt lat="47.78969" lon="1.01227">
        <ele>82</ele>
        <time>2024-01-16T16:25:14Z</time>
      </trkpt>
      <trkpt lat="47.78954" lon="1.01227">
        <ele>81</ele>
        <time>2024-01-16T16:25:34Z</time>
      </trkpt>
      <trkpt lat="47.78937" lon="1.01259">
        <ele>79</ele>
        <time>2024-01-16T16:26:10Z</time>
      </trkpt>
      <trkpt lat="47.78825" lon="1.01163">
        <ele>81</ele>
        <time>2024-01-16T16:29:03Z</time>
      </trkpt>
      <trkpt lat="47.78688" lon="1.01106">
        <ele>77</ele>
        <time>2024-01-16T16:32:13Z</time>
      </trkpt>
      <trkpt lat="47.78661" lon="1.01089">
        <ele>77</ele>
        <time>2024-01-16T16:32:52Z</time>
      </trkpt>
      <trkpt lat="47.78636" lon="1.01056">
        <ele>77</ele>
        <time>2024-01-16T16:33:36Z</time>
      </trkpt>
      <trkpt lat="47.78583" lon="1.00912">
        <ele>77</ele>
        <time>2024-01-16T16:36:03Z</time>
      </trkpt>
      <trkpt lat="47.78556" lon="1.00841">
        <ele>76</ele>
        <time>2024-01-16T16:37:17Z</time>
      </trkpt>
      <trkpt lat="47.78558" lon="1.00812">
        <ele>76</ele>
        <time>2024-01-16T16:37:43Z</time>
      </trkpt>
      <trkpt lat="47.78544" lon="1.00801">
        <ele>76</ele>
        <time>2024-01-16T16:38:04Z</time>
      </trkpt>
      <trkpt lat="47.78476" lon="1.00628">
        <ele>76</ele>
        <time>2024-01-16T16:41:04Z</time>
      </trkpt>
      <trkpt lat="47.78452" lon="1.00535">
        <ele>75</ele>
        <time>2024-01-16T16:42:33Z</time>
      </trkpt>
      <trkpt lat="47.78435" lon="1.00461">
        <ele>75</ele>
        <time>2024-01-16T16:43:43Z</time>
      </trkpt>
      <trkpt lat="47.78445" lon="1.00356">
        <ele>76</ele>
        <time>2024-01-16T16:45:18Z</time>
      </trkpt>
      <trkpt lat="47.78479" lon="1.0026">
        <ele>75</ele>
        <time>2024-01-16T16:46:55Z</time>
      </trkpt>
      <trkpt lat="47.78558" lon="1.00063">
        <ele>75</ele>
        <time>2024-01-16T16:50:21Z</time>
      </trkpt>
      <trkpt lat="47.78624" lon="0.99861">
        <ele>78</ele>
        <time>2024-01-16T16:53:43Z</time>
      </trkpt>
      <trkpt lat="47.78712" lon="0.99686">
        <ele>76</ele>
        <time>2024-01-16T16:56:59Z</time>
      </trkpt>
      <trkpt lat="47.78772" lon="0.99566">
        <ele>76</ele>
        <time>2024-01-16T16:59:13Z</time>
      </trkpt>
      <trkpt lat="47.78803" lon="0.99372">
        <ele>74</ele>
        <time>2024-01-16T17:02:11Z</time>
      </trkpt>
      <trkpt lat="47.78824" lon="0.99236">
        <ele>74</ele>
        <time>2024-01-16T17:04:17Z</time>
      </trkpt>
      <trkpt lat="47.78849" lon="0.99177">
        <ele>74</ele>
        <time>2024-01-16T17:05:19Z</time>
      </trkpt>
      <trkpt lat="47.7888" lon="0.9911">
        <ele>73</ele>
        <time>2024-01-16T17:06:32Z</time>
      </trkpt>
      <trkpt lat="47.78906" lon="0.99063">
        <ele>72</ele>
        <time>2024-01-16T17:07:27Z</time>
      </trkpt>
      <trkpt lat="47.78926" lon="0.9904">
        <ele>72</ele>
        <time>2024-01-16T17:08:00Z</time>
      </trkpt>
      <trkpt lat="47.78929" lon="0.99066">
        <ele>72</ele>
        <time>2024-01-16T17:08:24Z</time>
      </trkpt>
      <trkpt lat="47.79001" lon="0.99238">
        <ele>72</ele>
        <time>2024-01-16T17:11:26Z</time>
      </trkpt>
      <trkpt lat="47.79036" lon="0.99217">
        <ele>73</ele>
        <time>2024-01-16T17:12:16Z</time>
      </trkpt>
      <trkpt lat="47.79066" lon="0.99206">
        <ele>75</ele>
        <time>2024-01-16T17:12:57Z</time>
      </trkpt>
      <trkpt lat="47.79116" lon="0.99167">
        <ele>76</ele>
        <time>2024-01-16T17:14:13Z</time>
      </trkpt>
      <trkpt lat="47.79166" lon="0.99119">
        <ele>76</ele>
        <time>2024-01-16T17:15:32Z</time>
      </trkpt>
      <trkpt lat="47.79215" lon="0.99072">
        <ele>75</ele>
        <time>2024-01-16T17:16:50Z</time>
      </trkpt>
      <trkpt lat="47.79263" lon="0.99044">
        <ele>75</ele>
        <time>2024-01-16T17:17:59Z</time>
      </trkpt>
      <trkpt lat="47.79314" lon="0.99019">
        <ele>75</ele>
        <time>2024-01-16T17:19:10Z</time>
      </trkpt>
      <trkpt lat="47.79328" lon="0.99008">
        <ele>75</ele>
        <time>2024-01-16T17:19:31Z</time>
      </trkpt>
      <trkpt lat="47.79367" lon="0.98928">
        <ele>75</ele>
        <time>2024-01-16T17:21:00Z</time>
      </trkpt>
      <trkpt lat="47.79388" lon="0.98872">
        <ele>75</ele>
        <time>2024-01-16T17:21:57Z</time>
      </trkpt>
      <trkpt lat="47.79419" lon="0.9878">
        <ele>75</ele>
        <time>2024-01-16T17:23:30Z</time>
      </trkpt>
      <trkpt lat="47.79467" lon="0.98695">
        <ele>77</ele>
        <time>2024-01-16T17:25:09Z</time>
      </trkpt>
      <trkpt lat="47.79493" lon="0.98657">
        <ele>77</ele>
        <time>2024-01-16T17:25:58Z</time>
      </trkpt>
      <trkpt lat="47.79542" lon="0.98736">
        <ele>75</ele>
        <time>2024-01-16T17:27:34Z</time>
      </trkpt>
      <trkpt lat="47.79591" lon="0.98816">
        <ele>75</ele>
        <time>2024-01-16T17:29:11Z</time>
      </trkpt>
      <trkpt lat="47.79641" lon="0.98894">
        <ele>76</ele>
        <time>2024-01-16T17:30:48Z</time>
      </trkpt>
      <trkpt lat="47.79671" lon="0.98852">
        <ele>76</ele>
        <time>2024-01-16T17:31:43Z</time>
      </trkpt>
      <trkpt lat="47.7971" lon="0.98813">
        <ele>74</ele>
        <time>2024-01-16T17:32:46Z</time>
      </trkpt>
      <trkpt lat="47.79759" lon="0.98761">
        <ele>74</ele>
        <time>2024-01-16T17:34:06Z</time>
      </trkpt>
      <trkpt lat="47.79808" lon="0.9871">
        <ele>75</ele>
        <time>2024-01-16T17:35:26Z</time>
      </trkpt>
      <trkpt lat="47.79857" lon="0.98659">
        <ele>75</ele>
        <time>2024-01-16T17:36:46Z</time>
      </trkpt>
      <trkpt lat="47.79905" lon="0.98608">
        <ele>74</ele>
        <time>2024-01-16T17:38:04Z</time>
      </trkpt>
      <trkpt lat="47.79954" lon="0.98556">
        <ele>73</ele>
        <time>2024-01-16T17:39:25Z</time>
      </trkpt>
      <trkpt lat="47.80003" lon="0.98504">
        <ele>73</ele>
        <time>2024-01-16T17:40:45Z</time>
      </trkpt>
      <trkpt lat="47.80052" lon="0.98455">
        <ele>74</ele>
        <time>2024-01-16T17:42:04Z</time>
      </trkpt>
      <trkpt lat="47.801" lon="0.98406">
        <ele>74</ele>
        <time>2024-01-16T17:43:21Z</time>
      </trkpt>
      <trkpt lat="47.80148" lon="0.98357">
        <ele>73</ele>
        <time>2024-01-16T17:44:39Z</time>
      </trkpt>
      <trkpt lat="47.80196" lon="0.98306">
        <ele>72</ele>
        <time>2024-01-16T17:45:58Z</time>
      </trkpt>
      <trkpt lat="47.80244" lon="0.98254">
        <ele>74</ele>
        <time>2024-01-16T17:47:17Z</time>
      </trkpt>
      <trkpt lat="47.80292" lon="0.98204">
        <ele>75</ele>
        <time>2024-01-16T17:48:35Z</time>
      </trkpt>
      <trkpt lat="47.80333" lon="0.98163">
        <ele>76</ele>
        <time>2024-01-16T17:49:41Z</time>
      </trkpt>
      <trkpt lat="47.80339" lon="0.98172">
        <ele>76</ele>
        <time>2024-01-16T17:49:52Z</time>
      </trkpt>
      <trkpt lat="47.80397" lon="0.98106">
        <ele>76</ele>
        <time>2024-01-16T17:51:30Z</time>
      </trkpt>
      <trkpt lat="47.80375" lon="0.98038">
        <ele>76</ele>
        <time>2024-01-16T17:52:37Z</time>
      </trkpt>
      <trkpt lat="47.80417" lon="0.97996">
        <ele>76</ele>
        <time>2024-01-16T17:53:45Z</time>
      </trkpt>
      <trkpt lat="47.80516" lon="0.97943">
        <ele>75</ele>
        <time>2024-01-16T17:56:05Z</time>
      </trkpt>
      <trkpt lat="47.80614" lon="0.97892">
        <ele>75</ele>
        <time>2024-01-16T17:58:24Z</time>
      </trkpt>
      <trkpt lat="47.80711" lon="0.97841">
        <ele>74</ele>
        <time>2024-01-16T18:00:41Z</time>
      </trkpt>
      <trkpt lat="47.80808" lon="0.97787">
        <ele>74</ele>
        <time>2024-01-16T18:02:59Z</time>
      </trkpt>
      <trkpt lat="47.80843" lon="0.97768">
        <ele>74</ele>
        <time>2024-01-16T18:03:49Z</time>
      </trkpt>
      <trkpt lat="47.80874" lon="0.97854">
        <ele>74</ele>
        <time>2024-01-16T18:05:16Z</time>
      </trkpt>
      <trkpt lat="47.80889" lon="0.9788">
        <ele>74</ele>
        <time>2024-01-16T18:05:47Z</time>
      </trkpt>
      <trkpt lat="47.80944" lon="0.97813">
        <ele>75</ele>
        <time>2024-01-16T18:07:22Z</time>
      </trkpt>
      <trkpt lat="47.8101" lon="0.97762">
        <ele>75</ele>
        <time>2024-01-16T18:09:01Z</time>
      </trkpt>
      <trkpt lat="47.81077" lon="0.97703">
        <ele>77</ele>
        <time>2024-01-16T18:10:45Z</time>
      </trkpt>
      <trkpt lat="47.81143" lon="0.97638">
        <ele>83</ele>
        <time>2024-01-16T18:12:31Z</time>
      </trkpt>
      <trkpt lat="47.81185" lon="0.97595">
        <ele>86</ele>
        <time>2024-01-16T18:13:39Z</time>
      </trkpt>
      <trkpt lat="47.81203" lon="0.97604">
        <ele>92</ele>
        <time>2024-01-16T18:14:04Z</time>
      </trkpt>
      <trkpt lat="47.81243" lon="0.97483">
        <ele>96</ele>
        <time>2024-01-16T18:16:05Z</time>
      </trkpt>
      <trkpt lat="47.81243" lon="0.97513">
        <ele>98</ele>
        <time>2024-01-16T18:16:32Z</time>
      </trkpt>
      <trkpt lat="47.8127" lon="0.97469">
        <ele>101</ele>
        <time>2024-01-16T18:17:25Z</time>
      </trkpt>
      <trkpt lat="47.81292" lon="0.97416">
        <ele>103</ele>
        <time>2024-01-16T18:18:21Z</time>
      </trkpt>
      <trkpt lat="47.81302" lon="0.97416">
        <ele>105</ele>
        <time>2024-01-16T18:18:34Z</time>
      </trkpt>
      <trkpt lat="47.81302" lon="0.97367">
        <ele>104</ele>
        <time>2024-01-16T18:19:18Z</time>
      </trkpt>
      <trkpt lat="47.81338" lon="0.9738">
        <ele>114</ele>
        <time>2024-01-16T18:20:08Z</time>
      </trkpt>
      <trkpt lat="47.81304" lon="0.97561">
        <ele>112</ele>
        <time>2024-01-16T18:22:56Z</time>
      </trkpt>
      <trkpt lat="47.81265" lon="0.97742">
        <ele>114</ele>
        <time>2024-01-16T18:25:47Z</time>
      </trkpt>
      <trkpt lat="47.81242" lon="0.97836">
        <ele>116</ele>
        <time>2024-01-16T18:27:16Z</time>
      </trkpt>
      <trkpt lat="47.81266" lon="0.97852">
        <ele>119</ele>
        <time>2024-01-16T18:27:51Z</time>
      </trkpt>
      <trkpt lat="47.81239" lon="0.97915">
        <ele>117</ele>
        <time>2024-01-16T18:28:58Z</time>
      </trkpt>
      <trkpt lat="47.81217" lon="0.97973">
        <ele>115</ele>
        <time>2024-01-16T18:29:58Z</time>
      </trkpt>
      <trkpt lat="47.81191" lon="0.98047">
        <ele>110</ele>
        <time>2024-01-16T18:31:13Z</time>
      </trkpt>
      <trkpt lat="47.81146" lon="0.98025">
        <ele>102</ele>
        <time>2024-01-16T18:32:16Z</time>
      </trkpt>
      <trkpt lat="47.8113" lon="0.98081">
        <ele>96</ele>
        <time>2024-01-16T18:33:11Z</time>
      </trkpt>
      <trkpt lat="47.81117" lon="0.98105">
        <ele>92</ele>
        <time>2024-01-16T18:33:38Z</time>
      </trkpt>
      <trkpt lat="47.81116" lon="0.98132">
        <ele>91</ele>
        <time>2024-01-16T18:34:02Z</time>
      </trkpt>
      <trkpt lat="47.81106" lon="0.98176">
        <ele>89</ele>
        <time>2024-01-16T18:34:44Z</time>
      </trkpt>
      <trkpt lat="47.81089" lon="0.98173">
        <ele>86</ele>
        <time>2024-01-16T18:35:07Z</time>
      </trkpt>
      <trkpt lat="47.81064" lon="0.98238">
        <ele>89</ele>
        <time>2024-01-16T18:36:14Z</time>
      </trkpt>
      <trkpt lat="47.81087" lon="0.9825">
        <ele>93</ele>
        <time>2024-01-16T18:36:47Z</time>
      </trkpt>
      <trkpt lat="47.81081" lon="0.98266">
        <ele>93</ele>
        <time>2024-01-16T18:37:03Z</time>
      </trkpt>
      <trkpt lat="47.81085" lon="0.9828">
        <ele>95</ele>
        <time>2024-01-16T18:37:17Z</time>
      </trkpt>
      <trkpt lat="47.81092" lon="0.98277">
        <ele>96</ele>
        <time>2024-01-16T18:37:26Z</time>
      </trkpt>
      <trkpt lat="47.81093" lon="0.98293">
        <ele>98</ele>
        <time>2024-01-16T18:37:41Z</time>
      </trkpt>
      <trkpt lat="47.81134" lon="0.98323">
        <ele>108</ele>
        <time>2024-01-16T18:38:42Z</time>
      </trkpt>
      <trkpt lat="47.81149" lon="0.98342">
        <ele>113</ele>
        <time>2024-01-16T18:39:08Z</time>
      </trkpt>
      <trkpt lat="47.81206" lon="0.98433">
        <ele>118</ele>
        <time>2024-01-16T18:40:59Z</time>
      </trkpt>
      <trkpt lat="47.8117" lon="0.98512">
        <ele>120</ele>
        <time>2024-01-16T18:42:25Z</time>
      </trkpt>
      <trkpt lat="47.81151" lon="0.98581">
        <ele>120</ele>
        <time>2024-01-16T18:43:32Z</time>
      </trkpt>
      <trkpt lat="47.81139" lon="0.98677">
        <ele>121</ele>
        <time>2024-01-16T18:44:59Z</time>
      </trkpt>
      <trkpt lat="47.81096" lon="0.98849">
        <ele>118</ele>
        <time>2024-01-16T18:47:44Z</time>
      </trkpt>
      <trkpt lat="47.81063" lon="0.98998">
        <ele>114</ele>
        <time>2024-01-16T18:50:04Z</time>
      </trkpt>
      <trkpt lat="47.8104" lon="0.99112">
        <ele>109</ele>
        <time>2024-01-16T18:51:51Z</time>
      </trkpt>
      <trkpt lat="47.81032" lon="0.99184">
        <ele>106</ele>
        <time>2024-01-16T18:52:57Z</time>
      </trkpt>
      <trkpt lat="47.81039" lon="0.99211">
        <ele>105</ele>
        <time>2024-01-16T18:53:22Z</time>
      </trkpt>
      <trkpt lat="47.81022" lon="0.99252">
        <ele>103</ele>
        <time>2024-01-16T18:54:06Z</time>
      </trkpt>
      <trkpt lat="47.81011" lon="0.99253">
        <ele>102</ele>
        <time>2024-01-16T18:54:20Z</time>
      </trkpt>
      <trkpt lat="47.81009" lon="0.99289">
        <ele>102</ele>
        <time>2024-01-16T18:54:53Z</time>
      </trkpt>
      <trkpt lat="47.80986" lon="0.99313">
        <ele>100</ele>
        <time>2024-01-16T18:55:30Z</time>
      </trkpt>
      <trkpt lat="47.8099" lon="0.99328">
        <ele>100</ele>
        <time>2024-01-16T18:55:45Z</time>
      </trkpt>
      <trkpt lat="47.80968" lon="0.99347">
        <ele>99</ele>
        <time>2024-01-16T18:56:19Z</time>
      </trkpt>
      <trkpt lat="47.80943" lon="0.99353">
        <ele>98</ele>
        <time>2024-01-16T18:56:52Z</time>
      </trkpt>
      <trkpt lat="47.80925" lon="0.9937">
        <ele>98</ele>
        <time>2024-01-16T18:57:21Z</time>
      </trkpt>
      <trkpt lat="47.80916" lon="0.99391">
        <ele>99</ele>
        <time>2024-01-16T18:57:43Z</time>
      </trkpt>
      <trkpt lat="47.80959" lon="0.99436">
        <ele>105</ele>
        <time>2024-01-16T18:58:53Z</time>
      </trkpt>
      <trkpt lat="47.80981" lon="0.99462">
        <ele>107</ele>
        <time>2024-01-16T18:59:31Z</time>
      </trkpt>
      <trkpt lat="47.80996" lon="0.99452">
        <ele>108</ele>
        <time>2024-01-16T18:59:53Z</time>
      </trkpt>
      <trkpt lat="47.81017" lon="0.99464">
        <ele>110</ele>
        <time>2024-01-16T19:00:23Z</time>
      </trkpt>
      <trkpt lat="47.81056" lon="0.99495">
        <ele>113</ele>
        <time>2024-01-16T19:01:22Z</time>
      </trkpt>
      <trkpt lat="47.81077" lon="0.99499">
        <ele>115</ele>
        <time>2024-01-16T19:01:50Z</time>
      </trkpt>
      <trkpt lat="47.81098" lon="0.99514">
        <ele>117</ele>
        <time>2024-01-16T19:02:21Z</time>
      </trkpt>
      <trkpt lat="47.81162" lon="0.9956">
        <ele>122</ele>
        <time>2024-01-16T19:03:56Z</time>
      </trkpt>
      <trkpt lat="47.81257" lon="0.99614">
        <ele>128</ele>
        <time>2024-01-16T19:06:12Z</time>
      </trkpt>
      <trkpt lat="47.81286" lon="0.99631">
        <ele>129</ele>
        <time>2024-01-16T19:06:53Z</time>
      </trkpt>
      <trkpt lat="47.81381" lon="0.99712">
        <ele>130</ele>
        <time>2024-01-16T19:09:19Z</time>
      </trkpt>
      <trkpt lat="47.8148" lon="0.99787">
        <ele>134</ele>
        <time>2024-01-16T19:11:48Z</time>
      </trkpt>
      <trkpt lat="47.81478" lon="0.99838">
        <ele>135</ele>
        <time>2024-01-16T19:12:33Z</time>
      </trkpt>
      <trkpt lat="47.81472" lon="0.99873">
        <ele>133</ele>
        <time>2024-01-16T19:13:06Z</time>
      </trkpt>
      <trkpt lat="47.81464" lon="0.99917">
        <ele>132</ele>
        <time>2024-01-16T19:13:47Z</time>
      </trkpt>
      <trkpt lat="47.81456" lon="1.00017">
        <ele>125</ele>
        <time>2024-01-16T19:15:17Z</time>
      </trkpt>
      <trkpt lat="47.8145" lon="1.00061">
        <ele>123</ele>
        <time>2024-01-16T19:15:57Z</time>
      </trkpt>
      <trkpt lat="47.81442" lon="1.00072">
        <ele>123</ele>
        <time>2024-01-16T19:16:12Z</time>
      </trkpt>
      <trkpt lat="47.81413" lon="1.00095">
        <ele>123</ele>
        <time>2024-01-16T19:16:55Z</time>
      </trkpt>
      <trkpt lat="47.81366" lon="1.00147">
        <ele>128</ele>
        <time>2024-01-16T19:18:14Z</time>
      </trkpt>
      <trkpt lat="47.81314" lon="1.00246">
        <ele>134</ele>
        <time>2024-01-16T19:20:06Z</time>
      </trkpt>
      <trkpt lat="47.81251" lon="1.00351">
        <ele>134</ele>
        <time>2024-01-16T19:22:12Z</time>
      </trkpt>
      <trkpt lat="47.8122" lon="1.00449">
        <ele>132</ele>
        <time>2024-01-16T19:23:49Z</time>
      </trkpt>
      <trkpt lat="47.81183" lon="1.00602">
        <ele>129</ele>
        <time>2024-01-16T19:26:15Z</time>
      </trkpt>
      <trkpt lat="47.81186" lon="1.00697">
        <ele>128</ele>
        <time>2024-01-16T19:27:40Z</time>
      </trkpt>
      <trkpt lat="47.81176" lon="1.00745">
        <ele>128</ele>
        <time>2024-01-16T19:28:25Z</time>
      </trkpt>
      <trkpt lat="47.81158" lon="1.00773">
        <ele>129</ele>
        <time>2024-01-16T19:29:00Z</time>
      </trkpt>
      <trkpt lat="47.81116" lon="1.00816">
        <ele>129</ele>
        <time>2024-01-16T19:30:08Z</time>
      </trkpt>
      <trkpt lat="47.81021" lon="1.00984">
        <ele>133</ele>
        <time>2024-01-16T19:33:25Z</time>
      </trkpt>
      <trkpt lat="47.8095" lon="1.01164">
        <ele>135</ele>
        <time>2024-01-16T19:36:32Z</time>
      </trkpt>
      <trkpt lat="47.80924" lon="1.01295">
        <ele>137</ele>
        <time>2024-01-16T19:38:35Z</time>
      </trkpt>
      <trkpt lat="47.80914" lon="1.01428">
        <ele>136</ele>
        <time>2024-01-16T19:40:34Z</time>
      </trkpt>
      <trkpt lat="47.80902" lon="1.01566">
        <ele>135</ele>
        <time>2024-01-16T19:42:39Z</time>
      </trkpt>
      <trkpt lat="47.80849" lon="1.01681">
        <ele>133</ele>
        <time>2024-01-16T19:44:44Z</time>
      </trkpt>
      <trkpt lat="47.80884" lon="1.01791">
        <ele>131</ele>
        <time>2024-01-16T19:46:33Z</time>
      </trkpt>
      <trkpt lat="47.80883" lon="1.0184">
        <ele>131</ele>
        <time>2024-01-16T19:47:17Z</time>
      </trkpt>
      <trkpt lat="47.80878" lon="1.0187">
        <ele>131</ele>
        <time>2024-01-16T19:47:45Z</time>
      </trkpt>
      <trkpt lat="47.80867" lon="1.01953">
        <ele>131</ele>
        <time>2024-01-16T19:49:01Z</time>
      </trkpt>
      <trkpt lat="47.8085" lon="1.02041">
        <ele>131</ele>
        <time>2024-01-16T19:50:23Z</time>
      </trkpt>
      <trkpt lat="47.80843" lon="1.02074">
        <ele>132</ele>
        <time>2024-01-16T19:50:54Z</time>
      </trkpt>
      <trkpt lat="47.80833" lon="1.02102">
        <ele>132</ele>
        <time>2024-01-16T19:51:22Z</time>
      </trkpt>
      <trkpt lat="47.80813" lon="1.02121">
        <ele>131</ele>
        <time>2024-01-16T19:51:54Z</time>
      </trkpt>
      <trkpt lat="47.80776" lon="1.02115">
        <ele>130</ele>
        <time>2024-01-16T19:52:44Z</time>
      </trkpt>
      <trkpt lat="47.80782" lon="1.02286">
        <ele>132</ele>
        <time>2024-01-16T19:55:17Z</time>
      </trkpt>
      <trkpt lat="47.80785" lon="1.02409">
        <ele>133</ele>
        <time>2024-01-16T19:57:07Z</time>
      </trkpt>
      <trkpt lat="47.80702" lon="1.0248">
        <ele>133</ele>
        <time>2024-01-16T19:59:15Z</time>
      </trkpt>
      <trkpt lat="47.80623" lon="1.02544">
        <ele>134</ele>
        <time>2024-01-16T20:01:15Z</time>
      </trkpt>
      <trkpt lat="47.80584" lon="1.02578">
        <ele>133</ele>
        <time>2024-01-16T20:02:15Z</time>
      </trkpt>
      <trkpt lat="47.8051" lon="1.02597">
        <ele>131</ele>
        <time>2024-01-16T20:03:56Z</time>
      </trkpt>
      <trkpt lat="47.80433" lon="1.02621">
        <ele>131</ele>
        <time>2024-01-16T20:05:41Z</time>
      </trkpt>
      <trkpt lat="47.8042" lon="1.02627">
        <ele>131</ele>
        <time>2024-01-16T20:05:59Z</time>
      </trkpt>
      <trkpt lat="47.80417" lon="1.02611">
        <ele>131</ele>
        <time>2024-01-16T20:06:14Z</time>
      </trkpt>
      <trkpt lat="47.8034" lon="1.02647">
        <ele>131</ele>
        <time>2024-01-16T20:08:01Z</time>
      </trkpt>
      <trkpt lat="47.80353" lon="1.02697">
        <ele>130</ele>
        <time>2024-01-16T20:08:49Z</time>
      </trkpt>
      <trkpt lat="47.80352" lon="1.02711">
        <ele>129</ele>
        <time>2024-01-16T20:09:02Z</time>
      </trkpt>
      <trkpt lat="47.80377" lon="1.02817">
        <ele>124</ele>
        <time>2024-01-16T20:10:43Z</time>
      </trkpt>
      <trkpt lat="47.80386" lon="1.02809">
        <ele>124</ele>
        <time>2024-01-16T20:10:57Z</time>
      </trkpt>
      <trkpt lat="47.80429" lon="1.02942">
        <ele>118</ele>
        <time>2024-01-16T20:13:09Z</time>
      </trkpt>
      <trkpt lat="47.80444" lon="1.02986">
        <ele>117</ele>
        <time>2024-01-16T20:13:53Z</time>
      </trkpt>
      <trkpt lat="47.80449" lon="1.02996">
        <ele>117</ele>
        <time>2024-01-16T20:14:04Z</time>
      </trkpt>
      <trkpt lat="47.80448" lon="1.03063">
        <ele>114</ele>
        <time>2024-01-16T20:15:04Z</time>
      </trkpt>
      <trkpt lat="47.80452" lon="1.03152">
        <ele>108</ele>
        <time>2024-01-16T20:16:24Z</time>
      </trkpt>
      <trkpt lat="47.80481" lon="1.03229">
        <ele>106</ele>
        <time>2024-01-16T20:17:44Z</time>
      </trkpt>
      <trkpt lat="47.80469" lon="1.03311">
        <ele>102</ele>
        <time>2024-01-16T20:18:59Z</time>
      </trkpt>
      <trkpt lat="47.80452" lon="1.03401">
        <ele>94</ele>
        <time>2024-01-16T20:20:23Z</time>
      </trkpt>
      <trkpt lat="47.80445" lon="1.03518">
        <ele>88</ele>
        <time>2024-01-16T20:22:08Z</time>
      </trkpt>
      <trkpt lat="47.80336" lon="1.03552">
        <ele>83</ele>
        <time>2024-01-16T20:24:36Z</time>
      </trkpt>
      <trkpt lat="47.80334" lon="1.03479">
        <ele>82</ele>
        <time>2024-01-16T20:25:42Z</time>
      </trkpt>
    </trkseg>
  </trk>
</gpx>